sensor_id;sensor_type;location;lat;lon;timestamp;P1;durP1;ratioP1;P2;durP2;ratioP2
19879;SDS011;10102;50.828;4.416;2023-07-22T00:00:23;10.93;;;7.75;;
19879;SDS011;10102;50.828;4.416;2023-07-22T00:02:49;11.77;;;7.80;;
19879;SDS011;10102;50.828;4.416;2023-07-22T00:05:14;11.23;;;8.10;;
19879;SDS011;10102;50.828;4.416;2023-07-22T00:07:41;18.23;;;8.20;;
19879;SDS011;10102;50.828;4.416;2023-07-22T00:10:07;12.95;;;8.18;;
19879;SDS011;10102;50.828;4.416;2023-07-22T00:12:35;13.30;;;8.90;;
19879;SDS011;10102;50.828;4.416;2023-07-22T00:15:01;16.10;;;8.00;;
19879;SDS011;10102;50.828;4.416;2023-07-22T00:17:27;13.07;;;7.78;;
19879;SDS011;10102;50.828;4.416;2023-07-22T00:19:54;11.88;;;8.20;;
19879;SDS011;10102;50.828;4.416;2023-07-22T00:22:21;13.88;;;8.23;;
19879;SDS011;10102;50.828;4.416;2023-07-22T00:24:48;15.75;;;8.07;;
19879;SDS011;10102;50.828;4.416;2023-07-22T00:27:14;16.73;;;7.65;;
19879;SDS011;10102;50.828;4.416;2023-07-22T00:29:40;12.35;;;8.05;;
19879;SDS011;10102;50.828;4.416;2023-07-22T00:32:07;12.02;;;7.75;;
19879;SDS011;10102;50.828;4.416;2023-07-22T00:34:34;11.15;;;7.60;;
19879;SDS011;10102;50.828;4.416;2023-07-22T00:37:00;11.80;;;7.45;;
19879;SDS011;10102;50.828;4.416;2023-07-22T00:39:25;13.68;;;7.38;;
19879;SDS011;10102;50.828;4.416;2023-07-22T00:41:51;19.08;;;7.90;;
19879;SDS011;10102;50.828;4.416;2023-07-22T00:44:17;12.27;;;7.25;;
19879;SDS011;10102;50.828;4.416;2023-07-22T00:46:43;13.90;;;8.52;;
19879;SDS011;10102;50.828;4.416;2023-07-22T00:49:10;18.58;;;7.90;;
19879;SDS011;10102;50.828;4.416;2023-07-22T00:51:39;15.10;;;7.80;;
19879;SDS011;10102;50.828;4.416;2023-07-22T00:54:05;16.15;;;8.30;;
19879;SDS011;10102;50.828;4.416;2023-07-22T00:56:32;13.10;;;7.50;;
19879;SDS011;10102;50.828;4.416;2023-07-22T00:59:01;19.75;;;8.02;;
19879;SDS011;10102;50.828;4.416;2023-07-22T01:01:27;16.13;;;7.88;;
19879;SDS011;10102;50.828;4.416;2023-07-22T01:03:53;13.05;;;8.05;;
19879;SDS011;10102;50.828;4.416;2023-07-22T01:06:19;16.67;;;8.15;;
19879;SDS011;10102;50.828;4.416;2023-07-22T01:08:45;12.38;;;7.82;;
19879;SDS011;10102;50.828;4.416;2023-07-22T01:11:14;15.70;;;8.20;;
19879;SDS011;10102;50.828;4.416;2023-07-22T01:13:40;13.45;;;7.28;;
19879;SDS011;10102;50.828;4.416;2023-07-22T01:16:06;19.95;;;7.90;;
19879;SDS011;10102;50.828;4.416;2023-07-22T01:18:36;12.57;;;8.13;;
19879;SDS011;10102;50.828;4.416;2023-07-22T01:21:03;15.95;;;9.10;;
19879;SDS011;10102;50.828;4.416;2023-07-22T01:23:32;13.27;;;7.82;;
19879;SDS011;10102;50.828;4.416;2023-07-22T01:25:58;11.07;;;8.02;;
19879;SDS011;10102;50.828;4.416;2023-07-22T01:28:25;17.50;;;8.73;;
19879;SDS011;10102;50.828;4.416;2023-07-22T01:30:51;18.45;;;8.77;;
19879;SDS011;10102;50.828;4.416;2023-07-22T01:33:17;16.15;;;8.55;;
19879;SDS011;10102;50.828;4.416;2023-07-22T01:35:44;14.40;;;8.75;;
19879;SDS011;10102;50.828;4.416;2023-07-22T01:38:10;14.10;;;8.93;;
19879;SDS011;10102;50.828;4.416;2023-07-22T01:40:38;15.40;;;8.75;;
19879;SDS011;10102;50.828;4.416;2023-07-22T01:43:05;14.88;;;7.93;;
19879;SDS011;10102;50.828;4.416;2023-07-22T01:45:31;12.90;;;8.40;;
19879;SDS011;10102;50.828;4.416;2023-07-22T01:47:57;14.82;;;9.07;;
19879;SDS011;10102;50.828;4.416;2023-07-22T01:50:23;16.00;;;8.88;;
19879;SDS011;10102;50.828;4.416;2023-07-22T01:52:49;14.88;;;8.90;;
19879;SDS011;10102;50.828;4.416;2023-07-22T01:55:15;18.15;;;8.82;;
19879;SDS011;10102;50.828;4.416;2023-07-22T01:57:41;14.98;;;8.15;;
19879;SDS011;10102;50.828;4.416;2023-07-22T02:00:07;13.73;;;7.72;;
19879;SDS011;10102;50.828;4.416;2023-07-22T02:02:37;15.00;;;8.25;;
19879;SDS011;10102;50.828;4.416;2023-07-22T02:05:03;15.40;;;8.80;;
19879;SDS011;10102;50.828;4.416;2023-07-22T02:07:29;22.60;;;8.77;;
19879;SDS011;10102;50.828;4.416;2023-07-22T02:09:55;18.77;;;9.10;;
19879;SDS011;10102;50.828;4.416;2023-07-22T02:12:21;15.50;;;8.82;;
19879;SDS011;10102;50.828;4.416;2023-07-22T02:14:47;15.27;;;8.93;;
19879;SDS011;10102;50.828;4.416;2023-07-22T02:17:13;16.77;;;8.80;;
19879;SDS011;10102;50.828;4.416;2023-07-22T02:19:39;16.33;;;9.23;;
19879;SDS011;10102;50.828;4.416;2023-07-22T02:22:05;17.00;;;8.50;;
19879;SDS011;10102;50.828;4.416;2023-07-22T02:24:31;15.68;;;8.55;;
19879;SDS011;10102;50.828;4.416;2023-07-22T02:26:58;17.58;;;8.60;;
19879;SDS011;10102;50.828;4.416;2023-07-22T02:29:24;17.70;;;9.65;;
19879;SDS011;10102;50.828;4.416;2023-07-22T02:31:50;17.75;;;8.80;;
19879;SDS011;10102;50.828;4.416;2023-07-22T02:34:15;16.50;;;9.00;;
19879;SDS011;10102;50.828;4.416;2023-07-22T02:36:41;19.42;;;9.65;;
19879;SDS011;10102;50.828;4.416;2023-07-22T02:39:07;16.23;;;9.13;;
19879;SDS011;10102;50.828;4.416;2023-07-22T02:41:36;15.00;;;8.95;;
19879;SDS011;10102;50.828;4.416;2023-07-22T02:44:03;18.45;;;9.05;;
19879;SDS011;10102;50.828;4.416;2023-07-22T02:46:28;15.13;;;9.45;;
19879;SDS011;10102;50.828;4.416;2023-07-22T02:48:55;23.30;;;11.30;;
19879;SDS011;10102;50.828;4.416;2023-07-22T02:51:21;20.15;;;10.07;;
19879;SDS011;10102;50.828;4.416;2023-07-22T02:53:48;24.38;;;10.23;;
19879;SDS011;10102;50.828;4.416;2023-07-22T02:56:16;16.73;;;9.35;;
19879;SDS011;10102;50.828;4.416;2023-07-22T02:58:43;19.35;;;10.20;;
19879;SDS011;10102;50.828;4.416;2023-07-22T03:01:09;21.15;;;10.32;;
19879;SDS011;10102;50.828;4.416;2023-07-22T03:03:35;23.25;;;10.27;;
19879;SDS011;10102;50.828;4.416;2023-07-22T03:06:02;17.40;;;10.68;;
19879;SDS011;10102;50.828;4.416;2023-07-22T03:08:30;21.63;;;11.18;;
19879;SDS011;10102;50.828;4.416;2023-07-22T03:10:56;28.38;;;10.82;;
19879;SDS011;10102;50.828;4.416;2023-07-22T03:13:22;25.73;;;10.95;;
19879;SDS011;10102;50.828;4.416;2023-07-22T03:15:48;17.40;;;10.80;;
19879;SDS011;10102;50.828;4.416;2023-07-22T03:18:15;19.52;;;10.40;;
19879;SDS011;10102;50.828;4.416;2023-07-22T03:20:41;22.48;;;10.63;;
19879;SDS011;10102;50.828;4.416;2023-07-22T03:23:07;26.00;;;10.98;;
19879;SDS011;10102;50.828;4.416;2023-07-22T03:25:33;17.33;;;9.98;;
19879;SDS011;10102;50.828;4.416;2023-07-22T03:28:03;19.80;;;10.82;;
19879;SDS011;10102;50.828;4.416;2023-07-22T03:30:30;25.58;;;11.23;;
19879;SDS011;10102;50.828;4.416;2023-07-22T03:32:57;21.70;;;11.38;;
19879;SDS011;10102;50.828;4.416;2023-07-22T03:35:23;21.60;;;11.02;;
19879;SDS011;10102;50.828;4.416;2023-07-22T03:37:49;19.27;;;11.70;;
19879;SDS011;10102;50.828;4.416;2023-07-22T03:40:15;23.02;;;11.13;;
19879;SDS011;10102;50.828;4.416;2023-07-22T03:42:57;23.65;;;11.23;;
19879;SDS011;10102;50.828;4.416;2023-07-22T03:45:23;18.30;;;11.10;;
19879;SDS011;10102;50.828;4.416;2023-07-22T03:47:52;20.48;;;10.60;;
19879;SDS011;10102;50.828;4.416;2023-07-22T03:50:21;19.92;;;10.43;;
19879;SDS011;10102;50.828;4.416;2023-07-22T03:52:48;19.75;;;10.63;;
19879;SDS011;10102;50.828;4.416;2023-07-22T03:55:14;19.52;;;10.35;;
19879;SDS011;10102;50.828;4.416;2023-07-22T03:57:41;21.08;;;10.73;;
19879;SDS011;10102;50.828;4.416;2023-07-22T04:00:07;22.40;;;10.55;;
19879;SDS011;10102;50.828;4.416;2023-07-22T04:02:36;27.42;;;10.13;;
19879;SDS011;10102;50.828;4.416;2023-07-22T04:05:03;17.45;;;9.90;;
19879;SDS011;10102;50.828;4.416;2023-07-22T04:07:28;19.70;;;10.18;;
19879;SDS011;10102;50.828;4.416;2023-07-22T04:09:55;21.38;;;10.77;;
19879;SDS011;10102;50.828;4.416;2023-07-22T04:12:20;23.17;;;10.15;;
19879;SDS011;10102;50.828;4.416;2023-07-22T04:14:46;20.70;;;9.75;;
19879;SDS011;10102;50.828;4.416;2023-07-22T04:17:12;21.13;;;10.48;;
19879;SDS011;10102;50.828;4.416;2023-07-22T04:19:40;18.48;;;10.50;;
19879;SDS011;10102;50.828;4.416;2023-07-22T04:22:07;18.98;;;10.07;;
19879;SDS011;10102;50.828;4.416;2023-07-22T04:24:33;18.25;;;10.15;;
19879;SDS011;10102;50.828;4.416;2023-07-22T04:27:01;24.67;;;10.10;;
19879;SDS011;10102;50.828;4.416;2023-07-22T04:29:27;20.48;;;10.27;;
19879;SDS011;10102;50.828;4.416;2023-07-22T04:31:59;18.73;;;9.77;;
19879;SDS011;10102;50.828;4.416;2023-07-22T04:34:28;20.58;;;10.20;;
19879;SDS011;10102;50.828;4.416;2023-07-22T04:36:57;19.98;;;10.27;;
19879;SDS011;10102;50.828;4.416;2023-07-22T04:39:24;21.13;;;10.25;;
19879;SDS011;10102;50.828;4.416;2023-07-22T04:41:50;18.92;;;9.55;;
19879;SDS011;10102;50.828;4.416;2023-07-22T04:44:16;20.90;;;10.85;;
19879;SDS011;10102;50.828;4.416;2023-07-22T04:46:44;16.10;;;9.82;;
19879;SDS011;10102;50.828;4.416;2023-07-22T04:49:10;15.35;;;9.38;;
19879;SDS011;10102;50.828;4.416;2023-07-22T04:51:37;18.90;;;10.05;;
19879;SDS011;10102;50.828;4.416;2023-07-22T04:54:03;18.95;;;9.82;;
19879;SDS011;10102;50.828;4.416;2023-07-22T04:56:28;21.75;;;10.73;;
19879;SDS011;10102;50.828;4.416;2023-07-22T04:58:54;17.85;;;10.18;;
19879;SDS011;10102;50.828;4.416;2023-07-22T05:01:20;25.65;;;10.68;;
19879;SDS011;10102;50.828;4.416;2023-07-22T05:03:46;22.30;;;10.35;;
19879;SDS011;10102;50.828;4.416;2023-07-22T05:06:12;21.08;;;10.52;;
19879;SDS011;10102;50.828;4.416;2023-07-22T05:08:37;29.80;;;10.57;;
19879;SDS011;10102;50.828;4.416;2023-07-22T05:11:03;15.90;;;9.05;;
19879;SDS011;10102;50.828;4.416;2023-07-22T05:13:29;19.20;;;8.93;;
19879;SDS011;10102;50.828;4.416;2023-07-22T05:15:55;15.77;;;8.65;;
19879;SDS011;10102;50.828;4.416;2023-07-22T05:18:21;15.50;;;8.95;;
19879;SDS011;10102;50.828;4.416;2023-07-22T05:20:47;20.85;;;8.93;;
19879;SDS011;10102;50.828;4.416;2023-07-22T05:23:13;20.00;;;9.25;;
19879;SDS011;10102;50.828;4.416;2023-07-22T05:25:40;22.33;;;9.90;;
19879;SDS011;10102;50.828;4.416;2023-07-22T05:28:06;21.25;;;9.30;;
19879;SDS011;10102;50.828;4.416;2023-07-22T05:30:31;22.30;;;8.45;;
19879;SDS011;10102;50.828;4.416;2023-07-22T05:32:58;23.52;;;9.80;;
19879;SDS011;10102;50.828;4.416;2023-07-22T05:35:24;13.45;;;8.05;;
19879;SDS011;10102;50.828;4.416;2023-07-22T05:37:50;19.00;;;9.32;;
19879;SDS011;10102;50.828;4.416;2023-07-22T05:40:16;19.83;;;8.05;;
19879;SDS011;10102;50.828;4.416;2023-07-22T05:42:41;20.27;;;7.65;;
19879;SDS011;10102;50.828;4.416;2023-07-22T05:45:07;26.30;;;8.73;;
19879;SDS011;10102;50.828;4.416;2023-07-22T05:47:33;15.90;;;7.93;;
19879;SDS011;10102;50.828;4.416;2023-07-22T05:49:59;19.48;;;7.93;;
19879;SDS011;10102;50.828;4.416;2023-07-22T05:52:25;20.77;;;7.40;;
19879;SDS011;10102;50.828;4.416;2023-07-22T05:54:51;12.35;;;7.28;;
19879;SDS011;10102;50.828;4.416;2023-07-22T05:57:17;17.77;;;8.00;;
19879;SDS011;10102;50.828;4.416;2023-07-22T05:59:43;16.23;;;7.72;;
19879;SDS011;10102;50.828;4.416;2023-07-22T06:02:12;13.32;;;6.45;;
19879;SDS011;10102;50.828;4.416;2023-07-22T06:04:39;22.35;;;7.07;;
19879;SDS011;10102;50.828;4.416;2023-07-22T06:07:05;11.40;;;6.80;;
19879;SDS011;10102;50.828;4.416;2023-07-22T06:09:31;14.82;;;6.82;;
19879;SDS011;10102;50.828;4.416;2023-07-22T06:11:56;12.52;;;5.68;;
19879;SDS011;10102;50.828;4.416;2023-07-22T06:14:22;18.02;;;6.38;;
19879;SDS011;10102;50.828;4.416;2023-07-22T06:16:49;13.80;;;6.43;;
19879;SDS011;10102;50.828;4.416;2023-07-22T06:19:16;19.08;;;6.60;;
19879;SDS011;10102;50.828;4.416;2023-07-22T06:21:42;15.45;;;6.68;;
19879;SDS011;10102;50.828;4.416;2023-07-22T06:24:08;13.18;;;6.32;;
19879;SDS011;10102;50.828;4.416;2023-07-22T06:26:34;13.57;;;5.72;;
19879;SDS011;10102;50.828;4.416;2023-07-22T06:29:00;11.77;;;6.00;;
19879;SDS011;10102;50.828;4.416;2023-07-22T06:31:25;13.05;;;5.65;;
19879;SDS011;10102;50.828;4.416;2023-07-22T06:33:55;10.15;;;5.30;;
19879;SDS011;10102;50.828;4.416;2023-07-22T06:36:25;14.77;;;5.72;;
19879;SDS011;10102;50.828;4.416;2023-07-22T06:38:53;16.17;;;6.35;;
19879;SDS011;10102;50.828;4.416;2023-07-22T06:41:25;11.60;;;5.82;;
19879;SDS011;10102;50.828;4.416;2023-07-22T06:43:51;16.55;;;5.63;;
19879;SDS011;10102;50.828;4.416;2023-07-22T06:46:17;15.05;;;7.10;;
19879;SDS011;10102;50.828;4.416;2023-07-22T06:48:43;16.83;;;6.57;;
19879;SDS011;10102;50.828;4.416;2023-07-22T06:51:10;15.20;;;6.18;;
19879;SDS011;10102;50.828;4.416;2023-07-22T06:53:35;16.58;;;6.90;;
19879;SDS011;10102;50.828;4.416;2023-07-22T06:56:01;16.10;;;6.20;;
19879;SDS011;10102;50.828;4.416;2023-07-22T06:58:27;12.30;;;5.32;;
19879;SDS011;10102;50.828;4.416;2023-07-22T07:00:54;11.98;;;6.32;;
19879;SDS011;10102;50.828;4.416;2023-07-22T07:03:21;18.17;;;6.35;;
19879;SDS011;10102;50.828;4.416;2023-07-22T07:05:54;18.98;;;6.57;;
19879;SDS011;10102;50.828;4.416;2023-07-22T07:08:21;10.82;;;5.75;;
19879;SDS011;10102;50.828;4.416;2023-07-22T07:10:47;11.80;;;5.82;;
19879;SDS011;10102;50.828;4.416;2023-07-22T07:13:13;13.23;;;5.93;;
19879;SDS011;10102;50.828;4.416;2023-07-22T07:15:39;18.90;;;6.20;;
19879;SDS011;10102;50.828;4.416;2023-07-22T07:18:07;14.20;;;5.97;;
19879;SDS011;10102;50.828;4.416;2023-07-22T07:20:33;16.38;;;5.97;;
19879;SDS011;10102;50.828;4.416;2023-07-22T07:23:00;13.43;;;5.47;;
19879;SDS011;10102;50.828;4.416;2023-07-22T07:25:25;12.52;;;5.75;;
19879;SDS011;10102;50.828;4.416;2023-07-22T07:27:52;10.40;;;5.10;;
19879;SDS011;10102;50.828;4.416;2023-07-22T07:30:17;9.25;;;5.18;;
19879;SDS011;10102;50.828;4.416;2023-07-22T07:32:43;17.13;;;6.07;;
19879;SDS011;10102;50.828;4.416;2023-07-22T07:35:10;15.07;;;5.60;;
19879;SDS011;10102;50.828;4.416;2023-07-22T07:37:37;19.42;;;5.63;;
19879;SDS011;10102;50.828;4.416;2023-07-22T07:40:03;12.02;;;5.68;;
19879;SDS011;10102;50.828;4.416;2023-07-22T07:42:29;13.82;;;5.38;;
19879;SDS011;10102;50.828;4.416;2023-07-22T07:44:55;15.73;;;5.20;;
19879;SDS011;10102;50.828;4.416;2023-07-22T07:47:21;11.50;;;4.93;;
19879;SDS011;10102;50.828;4.416;2023-07-22T07:49:47;12.07;;;4.93;;
19879;SDS011;10102;50.828;4.416;2023-07-22T07:52:13;9.05;;;5.13;;
19879;SDS011;10102;50.828;4.416;2023-07-22T07:54:39;11.85;;;4.78;;
19879;SDS011;10102;50.828;4.416;2023-07-22T07:57:05;11.20;;;5.35;;
19879;SDS011;10102;50.828;4.416;2023-07-22T07:59:31;11.73;;;4.43;;
19879;SDS011;10102;50.828;4.416;2023-07-22T08:01:57;13.25;;;4.78;;
19879;SDS011;10102;50.828;4.416;2023-07-22T08:04:23;12.02;;;4.53;;
19879;SDS011;10102;50.828;4.416;2023-07-22T08:06:50;10.90;;;4.82;;
19879;SDS011;10102;50.828;4.416;2023-07-22T08:09:16;15.95;;;4.82;;
19879;SDS011;10102;50.828;4.416;2023-07-22T08:11:44;17.55;;;4.97;;
19879;SDS011;10102;50.828;4.416;2023-07-22T08:14:10;11.45;;;4.82;;
19879;SDS011;10102;50.828;4.416;2023-07-22T08:16:36;13.52;;;4.25;;
19879;SDS011;10102;50.828;4.416;2023-07-22T08:19:03;12.13;;;5.10;;
19879;SDS011;10102;50.828;4.416;2023-07-22T08:21:30;13.02;;;5.10;;
19879;SDS011;10102;50.828;4.416;2023-07-22T08:23:56;10.30;;;4.10;;
19879;SDS011;10102;50.828;4.416;2023-07-22T08:26:22;11.77;;;4.53;;
19879;SDS011;10102;50.828;4.416;2023-07-22T08:28:49;10.98;;;4.43;;
19879;SDS011;10102;50.828;4.416;2023-07-22T08:31:15;10.38;;;4.05;;
19879;SDS011;10102;50.828;4.416;2023-07-22T08:33:40;8.85;;;4.25;;
19879;SDS011;10102;50.828;4.416;2023-07-22T08:36:06;13.15;;;4.32;;
19879;SDS011;10102;50.828;4.416;2023-07-22T08:38:33;9.35;;;4.20;;
19879;SDS011;10102;50.828;4.416;2023-07-22T08:40:58;11.57;;;4.03;;
19879;SDS011;10102;50.828;4.416;2023-07-22T08:43:24;8.30;;;3.70;;
19879;SDS011;10102;50.828;4.416;2023-07-22T08:45:53;10.27;;;4.00;;
19879;SDS011;10102;50.828;4.416;2023-07-22T08:48:21;8.00;;;2.88;;
19879;SDS011;10102;50.828;4.416;2023-07-22T08:53:16;7.57;;;3.33;;
19879;SDS011;10102;50.828;4.416;2023-07-22T08:55:44;9.85;;;3.35;;
19879;SDS011;10102;50.828;4.416;2023-07-22T08:58:11;8.68;;;3.40;;
19879;SDS011;10102;50.828;4.416;2023-07-22T09:00:38;12.95;;;4.15;;
19879;SDS011;10102;50.828;4.416;2023-07-22T09:03:05;7.53;;;2.85;;
19879;SDS011;10102;50.828;4.416;2023-07-22T09:05:31;6.70;;;3.15;;
19879;SDS011;10102;50.828;4.416;2023-07-22T09:07:59;5.57;;;2.65;;
19879;SDS011;10102;50.828;4.416;2023-07-22T09:10:27;10.70;;;3.17;;
19879;SDS011;10102;50.828;4.416;2023-07-22T09:12:54;4.47;;;2.75;;
19879;SDS011;10102;50.828;4.416;2023-07-22T09:15:19;7.45;;;2.88;;
19879;SDS011;10102;50.828;4.416;2023-07-22T09:17:46;5.00;;;2.95;;
19879;SDS011;10102;50.828;4.416;2023-07-22T09:20:13;10.23;;;2.50;;
19879;SDS011;10102;50.828;4.416;2023-07-22T09:22:43;7.60;;;2.40;;
19879;SDS011;10102;50.828;4.416;2023-07-22T09:27:42;9.55;;;2.65;;
19879;SDS011;10102;50.828;4.416;2023-07-22T09:33:01;5.30;;;2.10;;
19879;SDS011;10102;50.828;4.416;2023-07-22T09:35:29;4.32;;;2.15;;
19879;SDS011;10102;50.828;4.416;2023-07-22T09:37:56;6.97;;;2.20;;
19879;SDS011;10102;50.828;4.416;2023-07-22T09:40:24;4.57;;;2.30;;
19879;SDS011;10102;50.828;4.416;2023-07-22T09:42:55;2.80;;;1.80;;
19879;SDS011;10102;50.828;4.416;2023-07-22T09:45:30;4.32;;;2.10;;
19879;SDS011;10102;50.828;4.416;2023-07-22T09:47:56;3.15;;;1.85;;
19879;SDS011;10102;50.828;4.416;2023-07-22T09:50:24;4.07;;;2.55;;
19879;SDS011;10102;50.828;4.416;2023-07-22T09:52:51;5.18;;;2.30;;
19879;SDS011;10102;50.828;4.416;2023-07-22T09:55:20;4.20;;;2.55;;
19879;SDS011;10102;50.828;4.416;2023-07-22T09:57:49;6.78;;;2.08;;
19879;SDS011;10102;50.828;4.416;2023-07-22T10:00:16;5.38;;;2.00;;
19879;SDS011;10102;50.828;4.416;2023-07-22T10:02:46;5.45;;;2.15;;
19879;SDS011;10102;50.828;4.416;2023-07-22T10:05:17;3.80;;;2.10;;
19879;SDS011;10102;50.828;4.416;2023-07-22T10:07:55;4.35;;;1.70;;
19879;SDS011;10102;50.828;4.416;2023-07-22T10:12:58;4.43;;;2.00;;
19879;SDS011;10102;50.828;4.416;2023-07-22T10:15:25;5.35;;;1.80;;
19879;SDS011;10102;50.828;4.416;2023-07-22T10:17:53;3.78;;;1.58;;
19879;SDS011;10102;50.828;4.416;2023-07-22T10:20:20;4.88;;;1.80;;
19879;SDS011;10102;50.828;4.416;2023-07-22T10:22:48;4.65;;;1.85;;
19879;SDS011;10102;50.828;4.416;2023-07-22T10:25:16;3.58;;;1.60;;
19879;SDS011;10102;50.828;4.416;2023-07-22T10:27:46;3.35;;;1.67;;
19879;SDS011;10102;50.828;4.416;2023-07-22T10:30:14;2.42;;;1.63;;
19879;SDS011;10102;50.828;4.416;2023-07-22T10:35:09;3.13;;;1.35;;
19879;SDS011;10102;50.828;4.416;2023-07-22T10:37:37;2.35;;;1.50;;
19879;SDS011;10102;50.828;4.416;2023-07-22T10:40:25;2.65;;;1.50;;
19879;SDS011;10102;50.828;4.416;2023-07-22T10:43:05;3.75;;;1.50;;
19879;SDS011;10102;50.828;4.416;2023-07-22T10:45:39;2.40;;;1.65;;
19879;SDS011;10102;50.828;4.416;2023-07-22T10:48:07;2.10;;;1.60;;
19879;SDS011;10102;50.828;4.416;2023-07-22T10:50:54;3.88;;;1.85;;
19879;SDS011;10102;50.828;4.416;2023-07-22T11:14:23;4.88;;;1.85;;
19879;SDS011;10102;50.828;4.416;2023-07-22T11:16:50;4.38;;;1.95;;
19879;SDS011;10102;50.828;4.416;2023-07-22T11:19:18;4.22;;;2.08;;
19879;SDS011;10102;50.828;4.416;2023-07-22T11:21:46;6.38;;;2.20;;
19879;SDS011;10102;50.828;4.416;2023-07-22T11:24:13;5.40;;;3.05;;
19879;SDS011;10102;50.828;4.416;2023-07-22T11:26:40;3.75;;;2.03;;
19879;SDS011;10102;50.828;4.416;2023-07-22T11:29:07;5.25;;;2.10;;
19879;SDS011;10102;50.828;4.416;2023-07-22T11:31:38;3.42;;;2.20;;
19879;SDS011;10102;50.828;4.416;2023-07-22T11:34:14;3.28;;;1.95;;
19879;SDS011;10102;50.828;4.416;2023-07-22T11:36:41;4.70;;;2.35;;
19879;SDS011;10102;50.828;4.416;2023-07-22T11:39:09;3.00;;;1.92;;
19879;SDS011;10102;50.828;4.416;2023-07-22T11:41:36;3.30;;;1.88;;
19879;SDS011;10102;50.828;4.416;2023-07-22T11:44:04;3.85;;;2.25;;
19879;SDS011;10102;50.828;4.416;2023-07-22T11:46:34;2.90;;;2.00;;
19879;SDS011;10102;50.828;4.416;2023-07-22T11:49:01;4.25;;;2.60;;
19879;SDS011;10102;50.828;4.416;2023-07-22T11:51:27;4.00;;;1.90;;
19879;SDS011;10102;50.828;4.416;2023-07-22T11:53:54;2.95;;;1.67;;
19879;SDS011;10102;50.828;4.416;2023-07-22T11:56:21;4.00;;;1.75;;
19879;SDS011;10102;50.828;4.416;2023-07-22T11:58:48;4.05;;;1.90;;
19879;SDS011;10102;50.828;4.416;2023-07-22T12:01:18;3.75;;;1.80;;
19879;SDS011;10102;50.828;4.416;2023-07-22T12:03:44;5.40;;;2.05;;
19879;SDS011;10102;50.828;4.416;2023-07-22T12:06:11;3.45;;;2.00;;
19879;SDS011;10102;50.828;4.416;2023-07-22T12:08:47;7.22;;;1.98;;
19879;SDS011;10102;50.828;4.416;2023-07-22T12:11:17;3.30;;;1.95;;
19879;SDS011;10102;50.828;4.416;2023-07-22T12:13:47;4.38;;;1.90;;
19879;SDS011;10102;50.828;4.416;2023-07-22T12:16:29;4.20;;;1.67;;
19879;SDS011;10102;50.828;4.416;2023-07-22T12:18:54;3.75;;;1.90;;
19879;SDS011;10102;50.828;4.416;2023-07-22T12:21:21;4.22;;;1.80;;
19879;SDS011;10102;50.828;4.416;2023-07-22T12:23:47;4.35;;;1.73;;
19879;SDS011;10102;50.828;4.416;2023-07-22T12:26:13;6.05;;;2.00;;
19879;SDS011;10102;50.828;4.416;2023-07-22T12:28:39;5.63;;;2.15;;
19879;SDS011;10102;50.828;4.416;2023-07-22T12:31:05;4.63;;;1.77;;
19879;SDS011;10102;50.828;4.416;2023-07-22T12:33:31;2.22;;;1.63;;
19879;SDS011;10102;50.828;4.416;2023-07-22T12:35:57;7.63;;;1.77;;
19879;SDS011;10102;50.828;4.416;2023-07-22T12:38:23;4.10;;;1.88;;
19879;SDS011;10102;50.828;4.416;2023-07-22T12:40:49;2.13;;;1.67;;
19879;SDS011;10102;50.828;4.416;2023-07-22T12:43:15;4.40;;;1.27;;
19879;SDS011;10102;50.828;4.416;2023-07-22T12:45:41;7.45;;;1.63;;
19879;SDS011;10102;50.828;4.416;2023-07-22T12:48:07;4.22;;;1.70;;
19879;SDS011;10102;50.828;4.416;2023-07-22T12:50:32;3.83;;;1.65;;
19879;SDS011;10102;50.828;4.416;2023-07-22T12:52:58;6.30;;;1.23;;
19879;SDS011;10102;50.828;4.416;2023-07-22T12:55:25;8.00;;;1.65;;
19879;SDS011;10102;50.828;4.416;2023-07-22T12:57:51;6.05;;;1.60;;
19879;SDS011;10102;50.828;4.416;2023-07-22T13:00:17;3.50;;;1.63;;
19879;SDS011;10102;50.828;4.416;2023-07-22T13:02:42;2.83;;;1.67;;
19879;SDS011;10102;50.828;4.416;2023-07-22T13:05:08;3.90;;;1.55;;
19879;SDS011;10102;50.828;4.416;2023-07-22T13:07:34;2.20;;;1.55;;
19879;SDS011;10102;50.828;4.416;2023-07-22T13:10:00;3.17;;;1.40;;
19879;SDS011;10102;50.828;4.416;2023-07-22T13:12:30;2.45;;;1.48;;
19879;SDS011;10102;50.828;4.416;2023-07-22T13:14:56;5.82;;;2.05;;
19879;SDS011;10102;50.828;4.416;2023-07-22T13:17:21;4.90;;;1.75;;
19879;SDS011;10102;50.828;4.416;2023-07-22T13:19:47;1.52;;;1.42;;
19879;SDS011;10102;50.828;4.416;2023-07-22T13:22:13;2.17;;;1.65;;
19879;SDS011;10102;50.828;4.416;2023-07-22T13:24:39;2.95;;;1.55;;
19879;SDS011;10102;50.828;4.416;2023-07-22T13:27:04;5.43;;;1.65;;
19879;SDS011;10102;50.828;4.416;2023-07-22T13:29:31;4.57;;;1.35;;
19879;SDS011;10102;50.828;4.416;2023-07-22T13:31:56;3.90;;;1.50;;
19879;SDS011;10102;50.828;4.416;2023-07-22T13:34:22;4.32;;;1.83;;
19879;SDS011;10102;50.828;4.416;2023-07-22T13:36:48;5.35;;;1.90;;
19879;SDS011;10102;50.828;4.416;2023-07-22T13:39:14;2.65;;;1.67;;
19879;SDS011;10102;50.828;4.416;2023-07-22T13:41:39;3.65;;;1.95;;
19879;SDS011;10102;50.828;4.416;2023-07-22T13:44:05;2.95;;;2.10;;
19879;SDS011;10102;50.828;4.416;2023-07-22T13:46:31;5.05;;;2.22;;
19879;SDS011;10102;50.828;4.416;2023-07-22T13:48:57;2.33;;;1.70;;
19879;SDS011;10102;50.828;4.416;2023-07-22T13:51:23;4.70;;;1.60;;
19879;SDS011;10102;50.828;4.416;2023-07-22T13:53:48;4.50;;;2.30;;
19879;SDS011;10102;50.828;4.416;2023-07-22T13:56:14;8.23;;;1.85;;
19879;SDS011;10102;50.828;4.416;2023-07-22T13:58:40;4.68;;;1.90;;
19879;SDS011;10102;50.828;4.416;2023-07-22T14:01:06;4.30;;;2.33;;
19879;SDS011;10102;50.828;4.416;2023-07-22T14:03:32;3.03;;;1.80;;
19879;SDS011;10102;50.828;4.416;2023-07-22T14:05:57;2.97;;;2.05;;
19879;SDS011;10102;50.828;4.416;2023-07-22T14:08:23;3.83;;;1.90;;
19879;SDS011;10102;50.828;4.416;2023-07-22T14:10:49;2.78;;;1.80;;
19879;SDS011;10102;50.828;4.416;2023-07-22T14:13:15;5.55;;;1.70;;
19879;SDS011;10102;50.828;4.416;2023-07-22T14:15:41;7.90;;;2.00;;
19879;SDS011;10102;50.828;4.416;2023-07-22T14:18:07;5.72;;;1.60;;
19879;SDS011;10102;50.828;4.416;2023-07-22T14:20:32;8.60;;;2.20;;
19879;SDS011;10102;50.828;4.416;2023-07-22T14:22:59;4.60;;;1.92;;
19879;SDS011;10102;50.828;4.416;2023-07-22T14:25:24;2.85;;;1.55;;
19879;SDS011;10102;50.828;4.416;2023-07-22T14:27:50;4.10;;;1.95;;
19879;SDS011;10102;50.828;4.416;2023-07-22T14:30:16;4.50;;;1.85;;
19879;SDS011;10102;50.828;4.416;2023-07-22T14:32:41;2.47;;;1.67;;
19879;SDS011;10102;50.828;4.416;2023-07-22T14:35:08;3.30;;;1.98;;
19879;SDS011;10102;50.828;4.416;2023-07-22T14:37:35;4.20;;;1.70;;
19879;SDS011;10102;50.828;4.416;2023-07-22T14:40:02;3.13;;;1.73;;
19879;SDS011;10102;50.828;4.416;2023-07-22T14:42:30;3.95;;;2.15;;
19879;SDS011;10102;50.828;4.416;2023-07-22T14:44:55;6.15;;;1.88;;
19879;SDS011;10102;50.828;4.416;2023-07-22T14:47:21;5.10;;;1.80;;
19879;SDS011;10102;50.828;4.416;2023-07-22T14:49:47;5.68;;;1.98;;
19879;SDS011;10102;50.828;4.416;2023-07-22T14:52:13;5.72;;;2.00;;
19879;SDS011;10102;50.828;4.416;2023-07-22T14:54:39;11.38;;;1.88;;
19879;SDS011;10102;50.828;4.416;2023-07-22T14:57:04;5.65;;;1.75;;
19879;SDS011;10102;50.828;4.416;2023-07-22T14:59:30;5.28;;;1.98;;
19879;SDS011;10102;50.828;4.416;2023-07-22T15:01:56;4.72;;;1.63;;
19879;SDS011;10102;50.828;4.416;2023-07-22T15:04:23;3.33;;;1.80;;
19879;SDS011;10102;50.828;4.416;2023-07-22T15:06:49;4.50;;;2.03;;
19879;SDS011;10102;50.828;4.416;2023-07-22T15:09:15;4.00;;;1.77;;